Terminal Aerodrome Forecast
Issued by NWS

Home | Current Version | Previous Version | Text Only | Print | Product List | Glossary On
Versions: 1 2 3 4 5 6 7 8 9 10 11 12 13 14 15 16 17 18 19 20 21 22
665
FTUS43 KDLH 240758 AAB
TAFHYR
TAF AMD
KHYR 240758Z 2408/2506 VRB05KT 4SM BR FEW010 SCT080
      TEMPO 2408/2412 1SM BR BKN005
     FM241500 22005KT P6SM BKN015
     FM242000 24006KT P6SM VCTS SCT035CB BKN070
     FM250200 01004KT P6SM SCT070=

USA.gov is the U.S. government's official web portal to all federal, state and local government web resources and services.